createdAt,value
2022-10-11T00:00:01.377Z,101562.06
2022-10-11T00:02:27.996Z,101571.03
2022-10-11T00:04:54.560Z,101572.91
2022-10-11T00:07:21.591Z,101572.72
2022-10-11T00:09:48.120Z,101581.03
2022-10-11T00:12:14.706Z,101582.72
2022-10-11T00:14:41.263Z,101577.50
2022-10-11T00:17:08.572Z,101586.81
2022-10-11T00:19:35.119Z,101587.66
2022-10-11T00:22:01.708Z,101594.75
2022-10-11T00:24:28.343Z,101598.63
2022-10-11T00:26:54.861Z,101602.53
2022-10-11T00:29:21.390Z,101609.66
2022-10-11T00:31:47.920Z,101604.38
2022-10-11T00:34:17.136Z,101613.19
2022-10-11T00:36:45.554Z,101622.16
2022-10-11T00:39:14.381Z,101617.78
2022-10-11T00:41:41.560Z,101625.91
2022-10-11T00:44:22.924Z,101622.34
2022-10-11T00:47:03.596Z,101625.72
2022-10-11T00:49:40.298Z,101628.44
2022-10-11T00:52:29.217Z,101638.59
2022-10-11T00:54:57.071Z,101648.56
2022-10-11T00:57:26.521Z,101646.88
2022-10-11T00:59:55.272Z,101649.75
2022-10-11T01:02:23.782Z,101657.69
2022-10-11T01:05:01.183Z,101664.97
2022-10-11T01:07:39.479Z,101669.75
2022-10-11T01:10:06.231Z,101671.41
2022-10-11T01:12:33.457Z,101682.59
2022-10-11T01:15:11.450Z,101686.84
2022-10-11T01:18:28.241Z,101692.91
2022-10-11T01:21:45.750Z,101703.25
2022-10-11T01:24:33.733Z,101702.22
2022-10-11T01:27:29.247Z,101709.50
2022-10-11T01:29:55.727Z,101710.84
2022-10-11T01:32:41.568Z,101716.09
2022-10-11T01:35:21.515Z,101712.72
2022-10-11T01:38:11.408Z,101716.09
2022-10-11T01:40:52.891Z,101723.06
2022-10-11T01:43:20.656Z,101728.13
2022-10-11T01:45:51.686Z,101722.53
2022-10-11T01:48:18.524Z,101730.00
2022-10-11T01:50:51.468Z,101724.22
2022-10-11T01:53:47.531Z,101745.03
2022-10-11T01:56:47.875Z,101734.56
2022-10-11T01:59:40.364Z,101741.31
2022-10-11T02:02:38.526Z,101747.91
2022-10-11T02:05:12.359Z,101749.97
2022-10-11T02:07:55.188Z,101743.72
2022-10-11T02:10:32.399Z,101752.81
2022-10-11T02:13:37.654Z,101750.81
2022-10-11T02:16:09.405Z,101753.84
2022-10-11T02:18:41.389Z,101762.47
2022-10-11T02:21:12.513Z,101771.09
2022-10-11T02:24:14.322Z,101765.50
2022-10-11T02:26:43.542Z,101763.50
2022-10-11T02:29:15.057Z,101771.63
2022-10-11T02:31:43.724Z,101769.75
2022-10-11T02:34:24.425Z,101773.31
2022-10-11T02:37:11.962Z,101776.38
2022-10-11T02:40:10.410Z,101781.78
2022-10-11T02:42:43.343Z,101772.13
2022-10-11T02:45:23.627Z,101783.84
2022-10-11T02:47:50.426Z,101777.72
2022-10-11T02:50:17.123Z,101783.84
2022-10-11T02:52:43.628Z,101782.09
2022-10-11T02:55:10.912Z,101786.38
2022-10-11T02:57:38.411Z,101783.13
2022-10-11T03:00:05.963Z,101789.56
2022-10-11T03:02:32.625Z,101792.28
2022-10-11T03:04:59.170Z,101796.66
2022-10-11T03:07:25.916Z,101798.34
2022-10-11T03:09:52.426Z,101795.66
2022-10-11T03:12:18.998Z,101805.31
2022-10-11T03:14:45.550Z,101807.84
2022-10-11T03:17:34.977Z,101812.41
2022-10-11T03:19:58.614Z,101802.25
2022-10-11T03:22:25.226Z,101814.44
2022-10-11T03:24:51.754Z,101822.41
2022-10-11T03:27:18.276Z,101815.63
2022-10-11T03:29:44.801Z,101821.38
2022-10-11T03:32:11.322Z,101824.09
2022-10-11T03:34:37.857Z,101837.63
2022-10-11T03:37:04.368Z,101842.19
2022-10-11T03:39:30.950Z,101832.72
2022-10-11T03:41:57.484Z,101844.06
2022-10-11T03:44:24.175Z,101844.91
2022-10-11T03:46:50.708Z,101848.78
2022-10-11T03:49:17.274Z,101858.09
2022-10-11T03:51:43.807Z,101857.09
2022-10-11T03:54:10.397Z,101861.31
2022-10-11T03:56:36.974Z,101868.75
2022-10-11T03:59:03.631Z,101871.28
2022-10-11T04:01:30.773Z,101867.22
2022-10-11T04:03:57.665Z,101874.47
2022-10-11T04:06:24.284Z,101873.50
2022-10-11T04:08:50.829Z,101879.91
2022-10-11T04:11:17.367Z,101889.03
2022-10-11T04:13:43.872Z,101889.03
2022-10-11T04:16:10.417Z,101898.16
2022-10-11T04:18:37.099Z,101896.31
2022-10-11T04:21:03.867Z,101896.97
2022-10-11T04:23:31.826Z,101902.25
2022-10-11T04:25:58.369Z,101897.69
2022-10-11T04:28:25.178Z,101899.56
2022-10-11T04:30:52.285Z,101903.94
2022-10-11T04:33:19.204Z,101902.94
2022-10-11T04:35:45.718Z,101903.94
2022-10-11T04:38:12.366Z,101903.09
2022-10-11T04:40:39.233Z,101909.38
2022-10-11T04:43:05.767Z,101903.94
2022-10-11T04:45:32.315Z,101907.50
2022-10-11T04:47:58.888Z,101899.69
2022-10-11T04:50:25.424Z,101908.53
2022-10-11T04:52:51.969Z,101921.22
2022-10-11T04:55:18.564Z,101921.22
2022-10-11T04:57:45.064Z,101923.91
2022-10-11T05:00:12.312Z,101934.03
2022-10-11T05:02:38.868Z,101924.06
2022-10-11T05:05:05.882Z,101925.78
2022-10-11T05:07:32.542Z,101934.03
2022-10-11T05:09:59.119Z,101929.63
2022-10-11T05:12:25.708Z,101944.88
2022-10-11T05:14:52.433Z,101947.44
2022-10-11T05:17:18.957Z,101950.44
2022-10-11T05:19:45.501Z,101951.28
2022-10-11T05:22:12.018Z,101954.00
2022-10-11T05:24:38.548Z,101955.19
2022-10-11T05:27:05.049Z,101954.00
2022-10-11T05:29:31.688Z,101961.28
2022-10-11T05:31:58.280Z,101960.44
2022-10-11T05:34:24.801Z,101967.53
2022-10-11T05:36:51.321Z,101966.69
2022-10-11T05:39:17.838Z,101966.84
2022-10-11T05:41:44.451Z,101973.97
2022-10-11T05:44:10.992Z,101977.69
2022-10-11T05:46:37.554Z,101979.38
2022-10-11T05:49:04.080Z,101986.47
2022-10-11T05:51:30.766Z,101992.91
2022-10-11T05:53:57.300Z,101986.47
2022-10-11T05:56:25.526Z,101988.34
2022-10-11T05:58:52.610Z,101998.16
2022-10-11T06:01:25.204Z,102002.72
2022-10-11T06:03:52.372Z,102007.28
2022-10-11T06:06:20.136Z,102012.53
2022-10-11T06:08:47.617Z,102013.25
2022-10-11T06:11:17.576Z,102012.06
2022-10-11T06:13:44.384Z,102018.78
2022-10-11T06:16:11.711Z,102025.56
2022-10-11T06:18:38.372Z,102025.94
2022-10-11T06:21:05.070Z,102029.16
2022-10-11T06:23:31.735Z,102036.59
2022-10-11T06:26:02.443Z,102036.13
2022-10-11T06:28:29.962Z,102045.16
2022-10-11T06:30:56.552Z,102041.75
2022-10-11T06:33:24.057Z,102051.25
2022-10-11T06:35:56.943Z,102053.81
2022-10-11T06:38:23.474Z,102056.19
2022-10-11T06:40:50.014Z,102054.16
2022-10-11T06:43:16.576Z,102063.28
2022-10-11T06:45:43.130Z,102065.78
2022-10-11T06:48:09.640Z,102063.09
2022-10-11T06:50:58.518Z,102073.06
2022-10-11T06:53:25.282Z,102066.97
2022-10-11T06:55:51.847Z,102070.84
2022-10-11T06:58:18.385Z,102077.94
2022-10-11T07:00:44.971Z,102084.25
2022-10-11T07:03:11.512Z,102078.97
2022-10-11T07:05:38.089Z,102085.41
2022-10-11T07:08:04.884Z,102089.97
2022-10-11T07:10:31.429Z,102087.94
2022-10-11T07:12:57.932Z,102093.22
2022-10-11T07:15:24.525Z,102090.81
2022-10-11T07:17:51.020Z,102104.69
2022-10-11T07:20:17.597Z,102104.53
2022-10-11T07:22:44.123Z,102111.84
2022-10-11T07:25:10.707Z,102100.84
2022-10-11T07:27:37.244Z,102113.91
2022-10-11T07:30:04.053Z,102116.44
2022-10-11T07:32:30.940Z,102116.09
2022-10-11T07:34:57.467Z,102115.28
2022-10-11T07:37:24.053Z,102124.44
2022-10-11T07:39:50.573Z,102124.44
2022-10-11T07:42:17.458Z,102128.66
2022-10-11T07:44:44.038Z,102132.38
2022-10-11T07:47:11.572Z,102125.78
2022-10-11T07:49:38.184Z,102139.72
2022-10-11T07:52:04.982Z,102131.09
2022-10-11T07:54:32.789Z,102131.94
2022-10-11T07:56:59.534Z,102136.72
2022-10-11T07:59:26.172Z,102139.06
2022-10-11T08:01:52.841Z,102139.94
2022-10-11T08:04:21.278Z,102134.03
2022-10-11T08:06:51.094Z,102137.25
2022-10-11T08:09:19.851Z,102140.13
2022-10-11T08:11:46.397Z,102142.97
2022-10-11T08:14:12.920Z,102145.16
2022-10-11T08:16:40.233Z,102139.56
2022-10-11T08:19:07.372Z,102136.47
2022-10-11T08:21:34.813Z,102138.59
2022-10-11T08:24:03.498Z,102145.44
2022-10-11T08:26:30.545Z,102153.56
2022-10-11T08:28:58.335Z,102150.88
2022-10-11T08:31:25.028Z,102156.56
2022-10-11T08:33:51.556Z,102150.78
2022-10-11T08:36:18.129Z,102155.91
2022-10-11T08:38:44.689Z,102154.28
2022-10-11T08:41:26.234Z,102152.16
2022-10-11T08:44:58.367Z,102168.03
2022-10-11T08:47:28.651Z,102161.13
2022-10-11T08:49:56.545Z,102162.66
2022-10-11T08:52:24.555Z,102165.72
2022-10-11T08:55:04.520Z,102168.28
2022-10-11T08:57:35.385Z,102172.00
2022-10-11T09:00:05.134Z,102168.28
2022-10-11T09:03:07.947Z,102171.34
2022-10-11T09:05:39.556Z,102185.56
2022-10-11T09:08:25.998Z,102180.28
2022-10-11T09:11:21.077Z,102180.78
2022-10-11T09:14:35.365Z,102174.03
2022-10-11T09:17:22.921Z,102180.28
2022-10-11T09:20:01.410Z,102173.84
2022-10-11T09:22:33.765Z,102173.84
2022-10-11T09:25:09.485Z,102176.34
2022-10-11T09:28:07.780Z,102178.81
2022-10-11T09:30:40.334Z,102179.50
2022-10-11T09:33:20.990Z,102184.44
2022-10-11T09:35:51.401Z,102183.59
2022-10-11T09:38:39.891Z,102178.88
2022-10-11T09:41:26.173Z,102186.72
2022-10-11T09:43:52.813Z,102187.19
2022-10-11T09:46:34.238Z,102182.47
2022-10-11T09:49:04.754Z,102183.28
2022-10-11T09:51:31.927Z,102183.63
2022-10-11T09:54:01.181Z,102179.84
2022-10-11T09:56:33.463Z,102184.25
2022-10-11T09:59:06.917Z,102180.91
2022-10-11T10:01:33.677Z,102185.09
2022-10-11T10:04:11.049Z,102183.06
2022-10-11T10:06:39.045Z,102186.97
2022-10-11T10:09:26.397Z,102178.72
2022-10-11T10:11:57.205Z,102184.41
2022-10-11T10:14:28.936Z,102172.97
2022-10-11T10:17:08.545Z,102187.34
2022-10-11T10:19:49.378Z,102184.03
2022-10-11T10:22:29.501Z,102190.13
2022-10-11T10:24:58.457Z,102189.44
2022-10-11T10:27:30.595Z,102189.56
2022-10-11T10:30:13.241Z,102189.00
2022-10-11T10:33:06.717Z,102193.78
2022-10-11T10:35:36.362Z,102195.94
2022-10-11T10:38:24.095Z,102196.97
2022-10-11T10:41:04.056Z,102198.75
2022-10-11T10:43:35.674Z,102202.84
2022-10-11T10:46:23.281Z,102201.63
2022-10-11T10:49:41.165Z,102201.94
2022-10-11T10:52:26.372Z,102201.81
2022-10-11T10:55:28.359Z,102199.78
2022-10-11T10:58:22.405Z,102201.66
2022-10-11T11:00:52.484Z,102200.13
2022-10-11T11:03:24.317Z,102192.03
2022-10-11T11:06:09.947Z,102194.88
2022-10-11T11:09:00.496Z,102189.31
2022-10-11T11:12:03.909Z,102187.91
2022-10-11T11:14:59.543Z,102189.81
2022-10-11T11:17:51.885Z,102184.53
2022-10-11T11:20:33.297Z,102190.63
2022-10-11T11:23:20.683Z,102185.22
2022-10-11T11:26:04.649Z,102186.94
2022-10-11T11:29:09.864Z,102185.75
2022-10-11T11:32:01.497Z,102191.78
2022-10-11T11:34:37.846Z,102182.94
2022-10-11T11:37:15.174Z,102186.66
2022-10-11T11:39:46.238Z,102188.50
2022-10-11T11:42:18.227Z,102182.25
2022-10-11T11:44:50.285Z,102183.63
2022-10-11T11:47:33.140Z,102179.41
2022-10-11T11:50:03.193Z,102179.91
2022-10-11T11:52:38.932Z,102179.56
2022-10-11T11:55:21.579Z,102181.75
2022-10-11T11:58:02.109Z,102183.53
2022-10-11T12:00:48.210Z,102179.63
2022-10-11T12:03:24.055Z,102174.19
2022-10-11T12:06:12.008Z,102170.16
2022-10-11T12:08:41.010Z,102164.88
2022-10-11T12:11:41.139Z,102161.16
2022-10-11T12:14:27.258Z,102165.59
2022-10-11T12:17:18.743Z,102165.47
2022-10-11T12:20:06.743Z,102170.91
2022-10-11T12:22:33.211Z,102170.97
2022-10-11T12:25:01.351Z,102173.69
2022-10-11T12:27:43.887Z,102165.00
2022-10-11T12:30:44.469Z,102166.25
2022-10-11T12:33:31.250Z,102161.44
2022-10-11T12:36:21.790Z,102168.41
2022-10-11T12:39:19.987Z,102159.78
2022-10-11T12:41:55.420Z,102163.84
2022-10-11T12:44:27.217Z,102164.22
2022-10-11T12:46:53.754Z,102167.94
2022-10-11T12:49:43.323Z,102163.66
2022-10-11T12:52:28.321Z,102166.72
2022-10-11T12:55:19.837Z,102152.38
2022-10-11T12:58:17.858Z,102160.38
2022-10-11T13:01:04.796Z,102158.03
2022-10-11T13:03:37.139Z,102165.56
2022-10-11T13:06:18.817Z,102160.38
2022-10-11T13:08:59.904Z,102169.59
2022-10-11T13:11:37.170Z,102161.38
2022-10-11T13:14:26.102Z,102164.91
2022-10-11T13:17:06.947Z,102159.56
2022-10-11T13:19:36.875Z,102160.97
2022-10-11T13:22:15.298Z,102160.16
2022-10-11T13:24:42.556Z,102167.66
2022-10-11T13:27:20.263Z,102162.78
2022-10-11T13:29:47.762Z,102161.97
2022-10-11T13:32:26.284Z,102164.88
2022-10-11T13:37:30.028Z,102153.53
2022-10-11T13:39:57.666Z,102153.66
2022-10-11T13:42:29.662Z,102156.53
2022-10-11T13:44:57.204Z,102160.78
2022-10-11T13:47:29.247Z,102154.50
2022-10-11T13:50:10.910Z,102152.13
2022-10-11T13:52:50.405Z,102160.03
2022-10-11T13:55:29.623Z,102152.88
2022-10-11T13:57:58.480Z,102149.19
2022-10-11T14:00:29.422Z,102145.34
2022-10-11T14:03:13.427Z,102150.09
2022-10-11T14:05:43.223Z,102154.84
2022-10-11T14:08:31.091Z,102160.47
2022-10-11T14:11:02.436Z,102154.94
2022-10-11T14:13:38.974Z,102155.28
2022-10-11T14:16:08.712Z,102151.38
2022-10-11T14:18:48.882Z,102156.88
2022-10-11T14:21:48.234Z,102152.19
2022-10-11T14:24:16.394Z,102160.06
2022-10-11T14:26:45.836Z,102163.16
2022-10-11T14:29:27.864Z,102152.28
2022-10-11T14:32:03.551Z,102158.75
2022-10-11T14:34:30.953Z,102159.78
2022-10-11T14:36:57.528Z,102162.31
2022-10-11T14:39:25.889Z,102164.03
2022-10-11T14:41:52.810Z,102155.22
2022-10-11T14:44:20.475Z,102156.75
2022-10-11T14:46:48.982Z,102157.59
2022-10-11T14:49:22.594Z,102151.50
2022-10-11T14:51:50.173Z,102158.78
2022-10-11T14:54:22.633Z,102156.25
2022-10-11T14:56:50.917Z,102160.81
2022-10-11T14:59:21.833Z,102163.53
2022-10-11T15:01:51.910Z,102167.59
2022-10-11T15:04:19.582Z,102160.16
2022-10-11T15:06:46.350Z,102168.94
2022-10-11T15:09:12.927Z,102162.84
2022-10-11T15:11:39.837Z,102169.31
2022-10-11T15:14:06.879Z,102157.41
2022-10-11T15:16:34.381Z,102165.22
2022-10-11T15:19:01.213Z,102166.41
2022-10-11T15:21:29.127Z,102158.78
2022-10-11T15:23:56.707Z,102165.69
2022-10-11T15:26:28.539Z,102167.22
2022-10-11T15:28:56.883Z,102165.69
2022-10-11T15:31:23.975Z,102164.13
2022-10-11T15:33:50.800Z,102168.03
2022-10-11T15:36:20.426Z,102159.75
2022-10-11T15:38:47.484Z,102161.28
2022-10-11T15:41:15.756Z,102158.38
2022-10-11T15:43:44.240Z,102164.31
2022-10-11T15:46:17.452Z,102160.25
2022-10-11T15:48:45.363Z,102161.09
2022-10-11T15:51:12.181Z,102166.84
2022-10-11T15:53:38.754Z,102168.84
2022-10-11T15:56:09.122Z,102164.63
2022-10-11T15:58:38.909Z,102165.94
2022-10-11T16:01:09.400Z,102175.47
2022-10-11T16:03:36.403Z,102172.22
2022-10-11T16:06:05.558Z,102182.03
2022-10-11T16:08:33.379Z,102182.72
2022-10-11T16:11:00.394Z,102187.81
2022-10-11T16:13:27.138Z,102182.38
2022-10-11T16:15:54.107Z,102181.38
2022-10-11T16:18:21.090Z,102187.47
2022-10-11T16:20:51.081Z,102194.06
2022-10-11T16:23:18.254Z,102190.88
2022-10-11T16:25:57.046Z,102189.84
2022-10-11T16:28:23.729Z,102191.91
2022-10-11T16:30:50.611Z,102195.59
2022-10-11T16:33:17.120Z,102195.97
2022-10-11T16:35:43.738Z,102203.59
2022-10-11T16:38:10.571Z,102202.72
2022-10-11T16:40:38.893Z,102208.28
2022-10-11T16:43:07.982Z,102200.03
2022-10-11T16:45:35.903Z,102204.44
2022-10-11T16:48:03.253Z,102205.44
2022-10-11T16:50:29.941Z,102204.72
2022-10-11T16:52:56.578Z,102214.56
2022-10-11T16:55:23.389Z,102216.41
2022-10-11T16:57:49.930Z,102212.03
2022-10-11T17:00:16.856Z,102212.03
2022-10-11T17:02:43.423Z,102218.44
2022-10-11T17:05:09.965Z,102225.41
2022-10-11T17:07:36.551Z,102219.97
2022-10-11T17:10:04.357Z,102223.34
2022-10-11T17:12:31.998Z,102221.34
2022-10-11T17:14:58.532Z,102226.06
2022-10-11T17:17:25.197Z,102228.94
2022-10-11T17:19:51.723Z,102221.28
2022-10-11T17:22:19.512Z,102227.72
2022-10-11T17:24:46.366Z,102222.63
2022-10-11T17:27:13.512Z,102230.59
2022-10-11T17:29:40.274Z,102227.91
2022-10-11T17:32:07.190Z,102225.84
2022-10-11T17:34:34.532Z,102229.41
2022-10-11T17:37:01.198Z,102234.81
2022-10-11T17:39:27.768Z,102235.66
2022-10-11T17:41:54.388Z,102235.84
2022-10-11T17:44:21.716Z,102237.69
2022-10-11T17:46:48.675Z,102235.13
2022-10-11T17:49:15.385Z,102236.13
2022-10-11T17:51:43.451Z,102231.22
2022-10-11T17:54:13.035Z,102238.34
2022-10-11T17:56:41.341Z,102236.63
2022-10-11T17:59:11.724Z,102227.84
2022-10-11T18:01:38.445Z,102235.78
2022-10-11T18:04:06.155Z,102234.44
2022-10-11T18:06:38.377Z,102232.91
2022-10-11T18:09:05.193Z,102230.03
2022-10-11T18:11:32.660Z,102233.94
2022-10-11T18:13:59.335Z,102229.69
2022-10-11T18:16:28.954Z,102230.38
2022-10-11T18:18:57.355Z,102226.66
2022-10-11T18:21:33.629Z,102223.09
2022-10-11T18:24:03.089Z,102227.84
2022-10-11T18:26:30.983Z,102233.97
2022-10-11T18:28:58.468Z,102238.72
2022-10-11T18:31:27.678Z,102231.78
2022-10-11T18:33:54.966Z,102236.19
2022-10-11T18:36:24.676Z,102232.13
2022-10-11T18:38:56.708Z,102237.53
2022-10-11T18:41:25.110Z,102235.69
2022-10-11T18:43:56.322Z,102236.41
2022-10-11T18:46:24.155Z,102240.13
2022-10-11T18:48:52.419Z,102228.41
2022-10-11T18:51:27.965Z,102233.81
2022-10-11T18:53:54.973Z,102224.16
2022-10-11T18:56:24.641Z,102230.44
2022-10-11T18:58:53.922Z,102232.28
2022-10-11T19:01:54.332Z,102228.75
2022-10-11T19:04:21.423Z,102229.59
2022-10-11T19:06:50.629Z,102227.03
2022-10-11T19:09:21.965Z,102233.16
2022-10-11T19:11:50.878Z,102221.63
2022-10-11T19:14:20.165Z,102227.38
2022-10-11T19:16:49.648Z,102226.19
2022-10-11T19:19:17.036Z,102226.53
2022-10-11T19:21:43.877Z,102235.34
2022-10-11T19:24:10.615Z,102221.13
2022-10-11T19:26:39.659Z,102220.09
2022-10-11T19:29:09.943Z,102219.94
2022-10-11T19:31:41.095Z,102215.88
2022-10-11T19:34:07.752Z,102217.56
2022-10-11T19:36:36.794Z,102213.47
2022-10-11T19:39:05.626Z,102217.84
2022-10-11T19:41:32.702Z,102228.69
2022-10-11T19:43:59.585Z,102226.31
2022-10-11T19:46:44.401Z,102224.47
2022-10-11T19:49:17.405Z,102220.75
2022-10-11T19:51:43.958Z,102221.59
2022-10-11T19:54:13.795Z,102225.97
2022-10-11T19:56:40.930Z,102223.78
2022-10-11T19:59:07.474Z,102227.34
2022-10-11T20:01:35.378Z,102229.03
2022-10-11T20:04:05.890Z,102232.59
2022-10-11T20:06:38.352Z,102228.00
2022-10-11T20:09:29.530Z,102231.56
2022-10-11T20:11:56.025Z,102239.69
2022-10-11T20:14:22.655Z,102234.78
2022-10-11T20:16:52.769Z,102238.00
2022-10-11T20:19:19.422Z,102238.50
2022-10-11T20:21:46.039Z,102234.25
2022-10-11T20:24:12.887Z,102234.09
2022-10-11T20:26:40.159Z,102235.78
2022-10-11T20:29:06.795Z,102241.22
2022-10-11T20:31:37.959Z,102242.06
2022-10-11T20:34:07.067Z,102237.81
2022-10-11T20:36:35.837Z,102236.97
2022-10-11T20:39:02.530Z,102237.13
2022-10-11T20:41:34.259Z,102238.97
2022-10-11T20:44:02.042Z,102234.56
2022-10-11T20:46:34.295Z,102238.13
2022-10-11T20:49:03.807Z,102244.38
2022-10-11T20:51:31.975Z,102240.16
2022-10-11T20:53:58.848Z,102241.00
2022-10-11T20:56:25.459Z,102232.03
2022-10-11T20:58:53.955Z,102237.44
2022-10-11T21:01:23.068Z,102233.72
2022-10-11T21:03:50.382Z,102238.44
2022-10-11T21:06:16.908Z,102240.44
2022-10-11T21:08:43.468Z,102243.16
2022-10-11T21:11:10.743Z,102240.44
2022-10-11T21:13:37.652Z,102241.31
2022-10-11T21:16:11.310Z,102236.88
2022-10-11T21:18:38.521Z,102246.09
2022-10-11T21:21:13.382Z,102245.56
2022-10-11T21:23:40.882Z,102251.81
2022-10-11T21:26:10.159Z,102248.28
2022-10-11T21:28:37.924Z,102244.88
2022-10-11T21:31:06.717Z,102250.75
2022-10-11T21:33:34.449Z,102249.19
2022-10-11T21:36:09.544Z,102253.63
2022-10-11T21:38:36.620Z,102260.34
2022-10-11T21:41:04.663Z,102249.84
2022-10-11T21:43:31.509Z,102247.47
2022-10-11T21:45:58.063Z,102252.50
2022-10-11T21:48:24.594Z,102246.41
2022-10-11T21:50:54.697Z,102246.06
2022-10-11T21:53:21.507Z,102248.63
2022-10-11T21:55:48.054Z,102254.75
2022-10-11T21:58:14.613Z,102250.47
2022-10-11T22:00:41.145Z,102256.91
2022-10-11T22:03:07.938Z,102256.91
2022-10-11T22:05:34.481Z,102250.47
2022-10-11T22:08:00.980Z,102255.53
2022-10-11T22:10:27.551Z,102254.47
2022-10-11T22:12:54.122Z,102257.88
2022-10-11T22:15:20.652Z,102257.88
2022-10-11T22:17:47.219Z,102252.47
2022-10-11T22:20:13.829Z,102254.00
2022-10-11T22:22:40.379Z,102262.41
2022-10-11T22:25:07.364Z,102260.72
2022-10-11T22:27:33.997Z,102265.00
2022-10-11T22:30:00.833Z,102262.28
2022-10-11T22:32:27.376Z,102264.84
2022-10-11T22:34:53.937Z,102257.56
2022-10-11T22:37:20.469Z,102261.28
2022-10-11T22:39:47.008Z,102258.41
2022-10-11T22:42:13.536Z,102261.28
2022-10-11T22:44:40.045Z,102254.16
2022-10-11T22:47:06.596Z,102249.75
2022-10-11T22:49:33.177Z,102250.06
2022-10-11T22:51:59.795Z,102246.50
2022-10-11T22:54:26.351Z,102247.34
2022-10-11T22:56:52.905Z,102248.34
2022-10-11T22:59:19.434Z,102244.81
2022-10-11T23:01:45.997Z,102244.81
2022-10-11T23:04:12.540Z,102250.22
2022-10-11T23:06:39.101Z,102246.66
2022-10-11T23:09:05.704Z,102246.66
2022-10-11T23:11:32.229Z,102250.06
2022-10-11T23:13:58.771Z,102245.13
2022-10-11T23:16:25.313Z,102249.69
2022-10-11T23:18:53.345Z,102252.06
2022-10-11T23:21:19.958Z,102253.94
2022-10-11T23:23:47.170Z,102251.38
2022-10-11T23:26:16.140Z,102263.22
2022-10-11T23:28:43.335Z,102251.72
2022-10-11T23:31:13.487Z,102259.69
2022-10-11T23:33:40.069Z,102250.88
2022-10-11T23:36:12.597Z,102257.28
2022-10-11T23:38:39.138Z,102253.72
2022-10-11T23:41:05.720Z,102246.31
2022-10-11T23:43:32.263Z,102249.00
2022-10-11T23:45:58.837Z,102253.56
2022-10-11T23:48:25.373Z,102257.97
2022-10-11T23:50:51.967Z,102257.97
2022-10-11T23:53:18.524Z,102254.59
2022-10-11T23:55:45.092Z,102270.81
2022-10-11T23:58:11.626Z,102269.81
